sensor_id;sensor_type;location;lat;lon;timestamp;P1;durP1;ratioP1;P2;durP2;ratioP2
59649;SDS011;46162;57.568;25.814;2024-02-14T00:01:15;13.88;;;8.40;;
59649;SDS011;46162;57.568;25.814;2024-02-14T00:03:45;16.90;;;7.55;;
59649;SDS011;46162;57.568;25.814;2024-02-14T00:06:14;15.02;;;8.75;;
59649;SDS011;46162;57.568;25.814;2024-02-14T00:08:43;12.05;;;6.57;;
59649;SDS011;46162;57.568;25.814;2024-02-14T00:11:12;13.65;;;7.65;;
59649;SDS011;46162;57.568;25.814;2024-02-14T00:13:41;12.45;;;7.15;;
59649;SDS011;46162;57.568;25.814;2024-02-14T00:16:09;12.25;;;7.55;;
59649;SDS011;46162;57.568;25.814;2024-02-14T00:18:39;15.30;;;7.82;;
59649;SDS011;46162;57.568;25.814;2024-02-14T00:21:08;11.77;;;6.55;;
59649;SDS011;46162;57.568;25.814;2024-02-14T00:23:37;13.40;;;6.95;;
59649;SDS011;46162;57.568;25.814;2024-02-14T00:26:06;12.32;;;7.95;;
59649;SDS011;46162;57.568;25.814;2024-02-14T00:28:34;12.23;;;6.75;;
59649;SDS011;46162;57.568;25.814;2024-02-14T00:31:06;14.02;;;7.05;;
59649;SDS011;46162;57.568;25.814;2024-02-14T00:33:34;12.25;;;6.57;;
59649;SDS011;46162;57.568;25.814;2024-02-14T00:36:05;11.63;;;5.80;;
59649;SDS011;46162;57.568;25.814;2024-02-14T00:38:34;9.95;;;5.22;;
59649;SDS011;46162;57.568;25.814;2024-02-14T00:41:03;11.63;;;6.68;;
59649;SDS011;46162;57.568;25.814;2024-02-14T00:43:32;11.90;;;6.07;;
59649;SDS011;46162;57.568;25.814;2024-02-14T00:46:00;9.63;;;5.95;;
59649;SDS011;46162;57.568;25.814;2024-02-14T00:48:29;10.25;;;5.63;;
59649;SDS011;46162;57.568;25.814;2024-02-14T00:50:58;10.45;;;5.75;;
59649;SDS011;46162;57.568;25.814;2024-02-14T00:53:28;11.00;;;5.40;;
59649;SDS011;46162;57.568;25.814;2024-02-14T00:55:57;9.48;;;5.35;;
59649;SDS011;46162;57.568;25.814;2024-02-14T00:58:25;10.00;;;5.32;;
59649;SDS011;46162;57.568;25.814;2024-02-14T01:00:54;8.90;;;4.72;;
59649;SDS011;46162;57.568;25.814;2024-02-14T01:03:23;9.55;;;5.38;;
59649;SDS011;46162;57.568;25.814;2024-02-14T01:05:51;10.00;;;5.38;;
59649;SDS011;46162;57.568;25.814;2024-02-14T01:08:20;8.43;;;4.95;;
59649;SDS011;46162;57.568;25.814;2024-02-14T01:10:50;8.43;;;4.78;;
59649;SDS011;46162;57.568;25.814;2024-02-14T01:13:19;8.93;;;5.25;;
59649;SDS011;46162;57.568;25.814;2024-02-14T01:15:47;8.88;;;4.70;;
59649;SDS011;46162;57.568;25.814;2024-02-14T01:18:17;8.77;;;5.05;;
59649;SDS011;46162;57.568;25.814;2024-02-14T01:20:45;9.07;;;4.93;;
59649;SDS011;46162;57.568;25.814;2024-02-14T01:23:14;8.38;;;4.70;;
59649;SDS011;46162;57.568;25.814;2024-02-14T01:25:42;9.77;;;4.43;;
59649;SDS011;46162;57.568;25.814;2024-02-14T01:28:12;7.95;;;4.65;;
59649;SDS011;46162;57.568;25.814;2024-02-14T01:30:41;7.63;;;4.53;;
59649;SDS011;46162;57.568;25.814;2024-02-14T01:33:11;7.22;;;4.47;;
59649;SDS011;46162;57.568;25.814;2024-02-14T01:35:39;8.02;;;4.00;;
59649;SDS011;46162;57.568;25.814;2024-02-14T01:38:09;8.98;;;4.50;;
59649;SDS011;46162;57.568;25.814;2024-02-14T01:40:42;7.40;;;4.13;;
59649;SDS011;46162;57.568;25.814;2024-02-14T01:43:12;7.25;;;4.15;;
59649;SDS011;46162;57.568;25.814;2024-02-14T01:48:10;7.57;;;4.00;;
59649;SDS011;46162;57.568;25.814;2024-02-14T01:50:39;6.70;;;3.55;;
59649;SDS011;46162;57.568;25.814;2024-02-14T01:53:08;5.93;;;3.45;;
59649;SDS011;46162;57.568;25.814;2024-02-14T01:55:37;5.88;;;3.22;;
59649;SDS011;46162;57.568;25.814;2024-02-14T01:58:05;6.85;;;3.95;;
59649;SDS011;46162;57.568;25.814;2024-02-14T02:00:36;6.07;;;2.92;;
59649;SDS011;46162;57.568;25.814;2024-02-14T02:03:11;5.60;;;2.95;;
59649;SDS011;46162;57.568;25.814;2024-02-14T02:05:39;5.35;;;2.88;;
59649;SDS011;46162;57.568;25.814;2024-02-14T02:08:08;5.45;;;3.30;;
59649;SDS011;46162;57.568;25.814;2024-02-14T02:10:37;6.80;;;3.72;;
59649;SDS011;46162;57.568;25.814;2024-02-14T02:13:06;6.25;;;2.90;;
59649;SDS011;46162;57.568;25.814;2024-02-14T02:15:37;5.20;;;2.95;;
59649;SDS011;46162;57.568;25.814;2024-02-14T02:18:06;7.18;;;3.13;;
59649;SDS011;46162;57.568;25.814;2024-02-14T02:20:35;5.85;;;3.35;;
59649;SDS011;46162;57.568;25.814;2024-02-14T02:23:05;8.27;;;4.25;;
59649;SDS011;46162;57.568;25.814;2024-02-14T02:25:36;9.05;;;3.92;;
59649;SDS011;46162;57.568;25.814;2024-02-14T02:28:05;7.85;;;4.13;;
59649;SDS011;46162;57.568;25.814;2024-02-14T02:30:35;5.93;;;3.40;;
59649;SDS011;46162;57.568;25.814;2024-02-14T02:33:05;8.10;;;4.50;;
59649;SDS011;46162;57.568;25.814;2024-02-14T02:35:34;6.97;;;3.47;;
59649;SDS011;46162;57.568;25.814;2024-02-14T02:38:03;8.70;;;4.35;;
59649;SDS011;46162;57.568;25.814;2024-02-14T02:40:33;8.25;;;4.57;;
59649;SDS011;46162;57.568;25.814;2024-02-14T02:43:02;7.47;;;4.47;;
59649;SDS011;46162;57.568;25.814;2024-02-14T02:45:30;7.07;;;4.07;;
59649;SDS011;46162;57.568;25.814;2024-02-14T02:47:59;7.80;;;4.38;;
59649;SDS011;46162;57.568;25.814;2024-02-14T02:50:28;8.52;;;4.47;;
59649;SDS011;46162;57.568;25.814;2024-02-14T02:52:57;7.18;;;4.38;;
59649;SDS011;46162;57.568;25.814;2024-02-14T02:55:25;7.80;;;4.75;;
59649;SDS011;46162;57.568;25.814;2024-02-14T02:57:55;8.13;;;4.63;;
59649;SDS011;46162;57.568;25.814;2024-02-14T03:00:25;7.20;;;4.57;;
59649;SDS011;46162;57.568;25.814;2024-02-14T03:02:54;8.38;;;5.03;;
59649;SDS011;46162;57.568;25.814;2024-02-14T03:05:23;8.65;;;4.95;;
59649;SDS011;46162;57.568;25.814;2024-02-14T03:07:52;8.27;;;5.35;;
59649;SDS011;46162;57.568;25.814;2024-02-14T03:10:22;8.13;;;5.20;;
59649;SDS011;46162;57.568;25.814;2024-02-14T03:12:52;9.68;;;5.10;;
59649;SDS011;46162;57.568;25.814;2024-02-14T03:15:23;9.70;;;5.70;;
59649;SDS011;46162;57.568;25.814;2024-02-14T03:17:53;8.10;;;4.95;;
59649;SDS011;46162;57.568;25.814;2024-02-14T03:20:21;8.40;;;4.93;;
59649;SDS011;46162;57.568;25.814;2024-02-14T03:22:50;8.32;;;5.13;;
59649;SDS011;46162;57.568;25.814;2024-02-14T03:25:20;10.90;;;4.95;;
59649;SDS011;46162;57.568;25.814;2024-02-14T03:27:50;8.73;;;4.95;;
59649;SDS011;46162;57.568;25.814;2024-02-14T03:30:20;7.43;;;4.45;;
59649;SDS011;46162;57.568;25.814;2024-02-14T03:32:51;9.68;;;4.93;;
59649;SDS011;46162;57.568;25.814;2024-02-14T03:35:23;10.35;;;5.20;;
59649;SDS011;46162;57.568;25.814;2024-02-14T03:37:53;8.02;;;4.40;;
59649;SDS011;46162;57.568;25.814;2024-02-14T03:40:23;9.98;;;5.18;;
59649;SDS011;46162;57.568;25.814;2024-02-14T03:42:51;8.68;;;4.60;;
59649;SDS011;46162;57.568;25.814;2024-02-14T03:45:20;8.10;;;4.85;;
59649;SDS011;46162;57.568;25.814;2024-02-14T03:47:50;8.77;;;4.93;;
59649;SDS011;46162;57.568;25.814;2024-02-14T03:50:19;8.90;;;4.63;;
59649;SDS011;46162;57.568;25.814;2024-02-14T03:52:48;8.63;;;4.65;;
59649;SDS011;46162;57.568;25.814;2024-02-14T03:55:16;8.68;;;4.32;;
59649;SDS011;46162;57.568;25.814;2024-02-14T03:57:46;10.65;;;4.38;;
59649;SDS011;46162;57.568;25.814;2024-02-14T04:00:15;7.30;;;4.00;;
59649;SDS011;46162;57.568;25.814;2024-02-14T04:02:44;8.55;;;4.43;;
59649;SDS011;46162;57.568;25.814;2024-02-14T04:05:17;10.25;;;4.68;;
59649;SDS011;46162;57.568;25.814;2024-02-14T04:07:46;9.13;;;4.70;;
59649;SDS011;46162;57.568;25.814;2024-02-14T04:10:19;8.30;;;4.72;;
59649;SDS011;46162;57.568;25.814;2024-02-14T04:12:48;10.88;;;5.15;;
59649;SDS011;46162;57.568;25.814;2024-02-14T04:15:17;9.95;;;4.93;;
59649;SDS011;46162;57.568;25.814;2024-02-14T04:17:45;8.63;;;4.28;;
59649;SDS011;46162;57.568;25.814;2024-02-14T04:20:14;9.00;;;4.75;;
59649;SDS011;46162;57.568;25.814;2024-02-14T04:22:45;11.05;;;4.90;;
59649;SDS011;46162;57.568;25.814;2024-02-14T04:25:14;10.13;;;4.93;;
59649;SDS011;46162;57.568;25.814;2024-02-14T04:27:42;10.13;;;4.43;;
59649;SDS011;46162;57.568;25.814;2024-02-14T04:30:11;10.30;;;4.13;;
59649;SDS011;46162;57.568;25.814;2024-02-14T04:32:41;8.55;;;4.18;;
59649;SDS011;46162;57.568;25.814;2024-02-14T04:35:10;10.85;;;4.65;;
59649;SDS011;46162;57.568;25.814;2024-02-14T04:37:41;7.82;;;4.00;;
59649;SDS011;46162;57.568;25.814;2024-02-14T04:40:13;9.15;;;4.22;;
59649;SDS011;46162;57.568;25.814;2024-02-14T04:42:42;10.85;;;4.78;;
59649;SDS011;46162;57.568;25.814;2024-02-14T04:45:11;8.82;;;4.00;;
59649;SDS011;46162;57.568;25.814;2024-02-14T04:47:40;11.55;;;4.47;;
59649;SDS011;46162;57.568;25.814;2024-02-14T04:50:11;11.32;;;3.85;;
59649;SDS011;46162;57.568;25.814;2024-02-14T04:52:42;10.80;;;4.18;;
59649;SDS011;46162;57.568;25.814;2024-02-14T04:55:11;8.77;;;4.95;;
59649;SDS011;46162;57.568;25.814;2024-02-14T04:57:40;8.73;;;4.35;;
59649;SDS011;46162;57.568;25.814;2024-02-14T05:00:09;8.20;;;4.22;;
59649;SDS011;46162;57.568;25.814;2024-02-14T05:02:39;10.82;;;4.40;;
59649;SDS011;46162;57.568;25.814;2024-02-14T05:05:08;8.45;;;3.88;;
59649;SDS011;46162;57.568;25.814;2024-02-14T05:07:37;10.65;;;4.60;;
59649;SDS011;46162;57.568;25.814;2024-02-14T05:10:08;11.65;;;4.03;;
59649;SDS011;46162;57.568;25.814;2024-02-14T05:12:37;9.05;;;3.80;;
59649;SDS011;46162;57.568;25.814;2024-02-14T05:15:06;9.40;;;4.80;;
59649;SDS011;46162;57.568;25.814;2024-02-14T05:17:36;7.78;;;3.67;;
59649;SDS011;46162;57.568;25.814;2024-02-14T05:20:05;9.02;;;3.92;;
59649;SDS011;46162;57.568;25.814;2024-02-14T05:22:36;9.52;;;3.63;;
59649;SDS011;46162;57.568;25.814;2024-02-14T05:25:05;6.97;;;3.67;;
59649;SDS011;46162;57.568;25.814;2024-02-14T05:27:37;7.63;;;3.33;;
59649;SDS011;46162;57.568;25.814;2024-02-14T05:30:06;9.00;;;3.90;;
59649;SDS011;46162;57.568;25.814;2024-02-14T05:32:37;8.82;;;3.75;;
59649;SDS011;46162;57.568;25.814;2024-02-14T05:35:07;9.10;;;3.60;;
59649;SDS011;46162;57.568;25.814;2024-02-14T05:37:37;9.70;;;3.42;;
59649;SDS011;46162;57.568;25.814;2024-02-14T05:40:08;6.80;;;2.92;;
59649;SDS011;46162;57.568;25.814;2024-02-14T05:42:37;6.50;;;3.10;;
59649;SDS011;46162;57.568;25.814;2024-02-14T05:45:07;8.75;;;2.97;;
59649;SDS011;46162;57.568;25.814;2024-02-14T05:47:37;5.18;;;2.75;;
59649;SDS011;46162;57.568;25.814;2024-02-14T05:50:07;4.65;;;2.30;;
59649;SDS011;46162;57.568;25.814;2024-02-14T05:52:38;6.32;;;2.75;;
59649;SDS011;46162;57.568;25.814;2024-02-14T05:55:08;4.88;;;2.47;;
59649;SDS011;46162;57.568;25.814;2024-02-14T05:57:39;6.13;;;3.00;;
59649;SDS011;46162;57.568;25.814;2024-02-14T06:00:08;7.97;;;3.13;;
59649;SDS011;46162;57.568;25.814;2024-02-14T06:02:39;7.00;;;2.90;;
59649;SDS011;46162;57.568;25.814;2024-02-14T06:05:08;6.80;;;3.22;;
59649;SDS011;46162;57.568;25.814;2024-02-14T06:07:38;7.32;;;3.35;;
59649;SDS011;46162;57.568;25.814;2024-02-14T06:10:09;7.70;;;3.20;;
59649;SDS011;46162;57.568;25.814;2024-02-14T06:15:08;6.22;;;1.90;;
59649;SDS011;46162;57.568;25.814;2024-02-14T06:17:37;5.95;;;2.95;;
59649;SDS011;46162;57.568;25.814;2024-02-14T06:20:07;9.90;;;3.67;;
59649;SDS011;46162;57.568;25.814;2024-02-14T06:22:36;8.02;;;3.35;;
59649;SDS011;46162;57.568;25.814;2024-02-14T06:25:17;7.70;;;3.45;;
59649;SDS011;46162;57.568;25.814;2024-02-14T06:27:46;8.03;;;3.50;;
59649;SDS011;46162;57.568;25.814;2024-02-14T06:30:15;6.40;;;3.40;;
59649;SDS011;46162;57.568;25.814;2024-02-14T06:32:44;7.15;;;3.88;;
59649;SDS011;46162;57.568;25.814;2024-02-14T06:35:15;6.15;;;3.53;;
59649;SDS011;46162;57.568;25.814;2024-02-14T06:37:46;8.02;;;3.67;;
59649;SDS011;46162;57.568;25.814;2024-02-14T06:40:30;7.93;;;3.03;;
59649;SDS011;46162;57.568;25.814;2024-02-14T06:42:59;6.43;;;3.00;;
59649;SDS011;46162;57.568;25.814;2024-02-14T06:45:28;8.52;;;3.25;;
59649;SDS011;46162;57.568;25.814;2024-02-14T06:47:57;8.15;;;3.47;;
59649;SDS011;46162;57.568;25.814;2024-02-14T06:50:26;6.88;;;3.60;;
59649;SDS011;46162;57.568;25.814;2024-02-14T06:52:56;5.72;;;2.88;;
59649;SDS011;46162;57.568;25.814;2024-02-14T06:55:27;6.13;;;1.50;;
59649;SDS011;46162;57.568;25.814;2024-02-14T06:58:01;5.03;;;1.65;;
59649;SDS011;46162;57.568;25.814;2024-02-14T07:00:32;5.15;;;1.80;;
59649;SDS011;46162;57.568;25.814;2024-02-14T07:03:01;6.60;;;1.65;;
59649;SDS011;46162;57.568;25.814;2024-02-14T07:05:30;4.22;;;1.05;;
59649;SDS011;46162;57.568;25.814;2024-02-14T07:07:59;3.78;;;1.17;;
59649;SDS011;46162;57.568;25.814;2024-02-14T07:10:28;3.70;;;1.00;;
59649;SDS011;46162;57.568;25.814;2024-02-14T07:12:57;3.38;;;1.08;;
59649;SDS011;46162;57.568;25.814;2024-02-14T07:15:27;3.83;;;1.02;;
59649;SDS011;46162;57.568;25.814;2024-02-14T07:17:56;4.68;;;0.90;;
59649;SDS011;46162;57.568;25.814;2024-02-14T07:20:26;3.85;;;1.80;;
59649;SDS011;46162;57.568;25.814;2024-02-14T07:22:55;3.97;;;1.05;;
59649;SDS011;46162;57.568;25.814;2024-02-14T07:25:24;6.60;;;0.90;;
59649;SDS011;46162;57.568;25.814;2024-02-14T07:27:53;3.10;;;1.15;;
59649;SDS011;46162;57.568;25.814;2024-02-14T07:30:22;4.25;;;0.98;;
59649;SDS011;46162;57.568;25.814;2024-02-14T07:32:54;3.78;;;1.00;;
59649;SDS011;46162;57.568;25.814;2024-02-14T07:35:24;3.90;;;1.00;;
59649;SDS011;46162;57.568;25.814;2024-02-14T07:37:53;5.13;;;0.88;;
59649;SDS011;46162;57.568;25.814;2024-02-14T07:40:24;4.30;;;0.90;;
59649;SDS011;46162;57.568;25.814;2024-02-14T07:42:54;3.58;;;1.05;;
59649;SDS011;46162;57.568;25.814;2024-02-14T07:45:23;3.13;;;0.80;;
59649;SDS011;46162;57.568;25.814;2024-02-14T07:47:51;2.42;;;0.60;;
59649;SDS011;46162;57.568;25.814;2024-02-14T07:50:22;5.50;;;0.82;;
59649;SDS011;46162;57.568;25.814;2024-02-14T07:52:50;2.70;;;0.63;;
59649;SDS011;46162;57.568;25.814;2024-02-14T07:55:19;3.05;;;0.80;;
59649;SDS011;46162;57.568;25.814;2024-02-14T07:57:49;2.75;;;0.68;;
59649;SDS011;46162;57.568;25.814;2024-02-14T08:00:19;2.47;;;0.55;;
59649;SDS011;46162;57.568;25.814;2024-02-14T08:05:20;3.33;;;0.70;;
59649;SDS011;46162;57.568;25.814;2024-02-14T08:07:49;3.23;;;1.03;;
59649;SDS011;46162;57.568;25.814;2024-02-14T08:10:18;5.40;;;0.90;;
59649;SDS011;46162;57.568;25.814;2024-02-14T08:12:47;3.22;;;0.93;;
59649;SDS011;46162;57.568;25.814;2024-02-14T08:15:15;3.60;;;0.82;;
59649;SDS011;46162;57.568;25.814;2024-02-14T08:17:44;4.30;;;1.23;;
59649;SDS011;46162;57.568;25.814;2024-02-14T08:20:15;3.42;;;1.30;;
59649;SDS011;46162;57.568;25.814;2024-02-14T08:22:46;3.80;;;0.98;;
59649;SDS011;46162;57.568;25.814;2024-02-14T08:25:15;3.77;;;1.27;;
59649;SDS011;46162;57.568;25.814;2024-02-14T08:27:44;4.38;;;1.00;;
59649;SDS011;46162;57.568;25.814;2024-02-14T08:30:12;2.90;;;0.60;;
59649;SDS011;46162;57.568;25.814;2024-02-14T08:32:43;3.55;;;0.85;;
59649;SDS011;46162;57.568;25.814;2024-02-14T08:35:15;2.92;;;0.60;;
59649;SDS011;46162;57.568;25.814;2024-02-14T08:37:46;2.90;;;0.50;;
59649;SDS011;46162;57.568;25.814;2024-02-14T08:40:14;4.35;;;0.60;;
59649;SDS011;46162;57.568;25.814;2024-02-14T08:42:44;2.80;;;0.77;;
59649;SDS011;46162;57.568;25.814;2024-02-14T08:45:13;4.55;;;1.27;;
59649;SDS011;46162;57.568;25.814;2024-02-14T08:47:43;3.70;;;1.25;;
59649;SDS011;46162;57.568;25.814;2024-02-14T08:50:12;3.47;;;1.27;;
59649;SDS011;46162;57.568;25.814;2024-02-14T08:52:42;2.95;;;1.15;;
59649;SDS011;46162;57.568;25.814;2024-02-14T08:55:13;2.67;;;0.80;;
59649;SDS011;46162;57.568;25.814;2024-02-14T08:57:44;4.47;;;0.68;;
59649;SDS011;46162;57.568;25.814;2024-02-14T09:00:15;2.85;;;0.50;;
59649;SDS011;46162;57.568;25.814;2024-02-14T09:02:47;3.33;;;0.73;;
59649;SDS011;46162;57.568;25.814;2024-02-14T09:05:16;3.08;;;0.80;;
59649;SDS011;46162;57.568;25.814;2024-02-14T09:07:46;3.40;;;0.75;;
59649;SDS011;46162;57.568;25.814;2024-02-14T09:10:16;2.83;;;0.52;;
59649;SDS011;46162;57.568;25.814;2024-02-14T09:12:45;3.38;;;1.08;;
59649;SDS011;46162;57.568;25.814;2024-02-14T09:15:14;3.13;;;0.80;;
59649;SDS011;46162;57.568;25.814;2024-02-14T09:17:43;3.65;;;0.80;;
59649;SDS011;46162;57.568;25.814;2024-02-14T09:20:12;3.25;;;0.50;;
59649;SDS011;46162;57.568;25.814;2024-02-14T09:22:41;3.20;;;0.65;;
59649;SDS011;46162;57.568;25.814;2024-02-14T09:25:10;3.28;;;0.70;;
59649;SDS011;46162;57.568;25.814;2024-02-14T09:27:42;2.10;;;0.30;;
59649;SDS011;46162;57.568;25.814;2024-02-14T09:30:11;3.75;;;0.80;;
59649;SDS011;46162;57.568;25.814;2024-02-14T09:32:57;4.10;;;1.30;;
59649;SDS011;46162;57.568;25.814;2024-02-14T09:35:27;2.67;;;0.88;;
59649;SDS011;46162;57.568;25.814;2024-02-14T09:37:55;2.25;;;0.40;;
59649;SDS011;46162;57.568;25.814;2024-02-14T09:40:24;3.45;;;0.70;;
59649;SDS011;46162;57.568;25.814;2024-02-14T09:42:55;2.65;;;0.38;;
59649;SDS011;46162;57.568;25.814;2024-02-14T09:45:25;3.30;;;0.43;;
59649;SDS011;46162;57.568;25.814;2024-02-14T09:47:55;3.70;;;0.50;;
59649;SDS011;46162;57.568;25.814;2024-02-14T09:50:26;2.92;;;0.40;;
59649;SDS011;46162;57.568;25.814;2024-02-14T09:52:59;3.80;;;0.55;;
59649;SDS011;46162;57.568;25.814;2024-02-14T09:55:28;2.85;;;0.70;;
59649;SDS011;46162;57.568;25.814;2024-02-14T09:57:59;2.80;;;0.30;;
59649;SDS011;46162;57.568;25.814;2024-02-14T10:00:32;4.22;;;0.40;;
59649;SDS011;46162;57.568;25.814;2024-02-14T10:03:01;3.50;;;0.43;;
59649;SDS011;46162;57.568;25.814;2024-02-14T10:05:30;3.25;;;0.40;;
59649;SDS011;46162;57.568;25.814;2024-02-14T10:07:59;3.88;;;0.52;;
59649;SDS011;46162;57.568;25.814;2024-02-14T10:10:28;2.65;;;0.73;;
59649;SDS011;46162;57.568;25.814;2024-02-14T10:12:59;3.75;;;0.77;;
59649;SDS011;46162;57.568;25.814;2024-02-14T10:15:26;7.28;;;1.33;;
59649;SDS011;46162;57.568;25.814;2024-02-14T10:17:57;4.22;;;1.08;;
59649;SDS011;46162;57.568;25.814;2024-02-14T10:20:26;4.90;;;1.45;;
59649;SDS011;46162;57.568;25.814;2024-02-14T10:23:00;4.18;;;0.70;;
59649;SDS011;46162;57.568;25.814;2024-02-14T10:25:30;6.20;;;0.95;;
59649;SDS011;46162;57.568;25.814;2024-02-14T10:28:04;6.50;;;1.02;;
59649;SDS011;46162;57.568;25.814;2024-02-14T10:30:35;4.85;;;0.95;;
59649;SDS011;46162;57.568;25.814;2024-02-14T10:33:07;3.83;;;1.35;;
59649;SDS011;46162;57.568;25.814;2024-02-14T10:35:50;3.63;;;0.98;;
59649;SDS011;46162;57.568;25.814;2024-02-14T10:38:26;3.80;;;0.93;;
59649;SDS011;46162;57.568;25.814;2024-02-14T10:40:59;4.80;;;1.10;;
59649;SDS011;46162;57.568;25.814;2024-02-14T10:43:33;3.58;;;1.40;;
59649;SDS011;46162;57.568;25.814;2024-02-14T10:46:04;3.65;;;0.93;;
59649;SDS011;46162;57.568;25.814;2024-02-14T10:48:37;3.90;;;0.90;;
59649;SDS011;46162;57.568;25.814;2024-02-14T10:51:08;3.20;;;0.95;;
59649;SDS011;46162;57.568;25.814;2024-02-14T10:53:43;3.47;;;1.15;;
59649;SDS011;46162;57.568;25.814;2024-02-14T10:56:15;4.25;;;0.90;;
59649;SDS011;46162;57.568;25.814;2024-02-14T10:58:47;4.35;;;1.38;;
59649;SDS011;46162;57.568;25.814;2024-02-14T11:03:47;5.53;;;1.23;;
59649;SDS011;46162;57.568;25.814;2024-02-14T11:06:16;5.30;;;1.45;;
59649;SDS011;46162;57.568;25.814;2024-02-14T11:08:55;3.50;;;1.50;;
59649;SDS011;46162;57.568;25.814;2024-02-14T11:11:24;5.47;;;1.17;;
59649;SDS011;46162;57.568;25.814;2024-02-14T11:13:55;4.25;;;0.95;;
59649;SDS011;46162;57.568;25.814;2024-02-14T11:16:25;3.80;;;1.10;;
59649;SDS011;46162;57.568;25.814;2024-02-14T11:19:05;3.38;;;0.50;;
59649;SDS011;46162;57.568;25.814;2024-02-14T11:21:36;3.22;;;0.90;;
59649;SDS011;46162;57.568;25.814;2024-02-14T11:24:09;4.72;;;0.52;;
59649;SDS011;46162;57.568;25.814;2024-02-14T11:26:39;3.08;;;0.70;;
59649;SDS011;46162;57.568;25.814;2024-02-14T11:29:13;4.22;;;0.68;;
59649;SDS011;46162;57.568;25.814;2024-02-14T11:31:47;3.72;;;0.68;;
59649;SDS011;46162;57.568;25.814;2024-02-14T11:34:17;4.35;;;0.85;;
59649;SDS011;46162;57.568;25.814;2024-02-14T11:36:46;4.47;;;0.60;;
59649;SDS011;46162;57.568;25.814;2024-02-14T11:39:15;3.63;;;0.68;;
59649;SDS011;46162;57.568;25.814;2024-02-14T11:41:44;4.28;;;1.08;;
59649;SDS011;46162;57.568;25.814;2024-02-14T11:44:15;3.22;;;0.90;;
59649;SDS011;46162;57.568;25.814;2024-02-14T11:46:43;3.33;;;1.10;;
59649;SDS011;46162;57.568;25.814;2024-02-14T11:49:12;3.90;;;1.08;;
59649;SDS011;46162;57.568;25.814;2024-02-14T11:51:42;4.28;;;1.20;;
59649;SDS011;46162;57.568;25.814;2024-02-14T11:54:10;5.70;;;2.33;;
59649;SDS011;46162;57.568;25.814;2024-02-14T11:56:39;6.13;;;2.13;;
59649;SDS011;46162;57.568;25.814;2024-02-14T11:59:08;4.97;;;1.95;;
59649;SDS011;46162;57.568;25.814;2024-02-14T12:01:39;7.78;;;2.10;;
59649;SDS011;46162;57.568;25.814;2024-02-14T12:04:08;5.90;;;1.67;;
59649;SDS011;46162;57.568;25.814;2024-02-14T12:06:39;5.63;;;2.25;;
59649;SDS011;46162;57.568;25.814;2024-02-14T12:09:09;5.78;;;1.67;;
59649;SDS011;46162;57.568;25.814;2024-02-14T12:14:11;5.78;;;1.83;;
59649;SDS011;46162;57.568;25.814;2024-02-14T12:16:42;5.57;;;1.27;;
59649;SDS011;46162;57.568;25.814;2024-02-14T12:19:13;5.33;;;1.40;;
59649;SDS011;46162;57.568;25.814;2024-02-14T12:21:44;3.95;;;1.40;;
59649;SDS011;46162;57.568;25.814;2024-02-14T12:24:14;5.15;;;1.83;;
59649;SDS011;46162;57.568;25.814;2024-02-14T12:26:43;4.75;;;1.70;;
59649;SDS011;46162;57.568;25.814;2024-02-14T12:29:13;4.72;;;1.60;;
59649;SDS011;46162;57.568;25.814;2024-02-14T12:31:43;6.70;;;1.90;;
59649;SDS011;46162;57.568;25.814;2024-02-14T12:34:12;9.60;;;2.08;;
59649;SDS011;46162;57.568;25.814;2024-02-14T12:36:41;5.53;;;1.65;;
59649;SDS011;46162;57.568;25.814;2024-02-14T12:39:11;5.20;;;1.60;;
59649;SDS011;46162;57.568;25.814;2024-02-14T12:41:40;6.50;;;1.73;;
59649;SDS011;46162;57.568;25.814;2024-02-14T12:44:09;4.97;;;1.50;;
59649;SDS011;46162;57.568;25.814;2024-02-14T12:46:38;5.00;;;1.73;;
59649;SDS011;46162;57.568;25.814;2024-02-14T12:49:08;5.40;;;1.38;;
59649;SDS011;46162;57.568;25.814;2024-02-14T12:51:38;7.63;;;1.58;;
59649;SDS011;46162;57.568;25.814;2024-02-14T12:54:07;5.63;;;1.98;;
59649;SDS011;46162;57.568;25.814;2024-02-14T12:56:39;7.20;;;1.80;;
59649;SDS011;46162;57.568;25.814;2024-02-14T12:59:08;5.28;;;2.45;;
59649;SDS011;46162;57.568;25.814;2024-02-14T13:01:43;5.63;;;2.22;;
59649;SDS011;46162;57.568;25.814;2024-02-14T13:04:13;6.57;;;2.25;;
59649;SDS011;46162;57.568;25.814;2024-02-14T13:06:43;9.50;;;3.40;;
59649;SDS011;46162;57.568;25.814;2024-02-14T13:09:13;5.80;;;2.63;;
59649;SDS011;46162;57.568;25.814;2024-02-14T13:11:42;6.70;;;2.80;;
59649;SDS011;46162;57.568;25.814;2024-02-14T13:14:11;6.97;;;2.38;;
59649;SDS011;46162;57.568;25.814;2024-02-14T13:16:41;10.83;;;3.17;;
59649;SDS011;46162;57.568;25.814;2024-02-14T13:19:10;6.55;;;3.20;;
59649;SDS011;46162;57.568;25.814;2024-02-14T13:21:45;8.50;;;3.40;;
59649;SDS011;46162;57.568;25.814;2024-02-14T13:24:15;9.05;;;3.97;;
59649;SDS011;46162;57.568;25.814;2024-02-14T13:26:45;6.70;;;4.45;;
59649;SDS011;46162;57.568;25.814;2024-02-14T13:29:14;12.48;;;4.10;;
59649;SDS011;46162;57.568;25.814;2024-02-14T13:31:44;9.60;;;4.57;;
59649;SDS011;46162;57.568;25.814;2024-02-14T13:34:13;9.45;;;4.10;;
59649;SDS011;46162;57.568;25.814;2024-02-14T13:36:42;9.75;;;4.35;;
59649;SDS011;46162;57.568;25.814;2024-02-14T13:39:12;9.40;;;3.78;;
59649;SDS011;46162;57.568;25.814;2024-02-14T13:41:42;13.30;;;5.15;;
59649;SDS011;46162;57.568;25.814;2024-02-14T13:44:11;10.27;;;4.57;;
59649;SDS011;46162;57.568;25.814;2024-02-14T13:46:43;10.15;;;4.93;;
59649;SDS011;46162;57.568;25.814;2024-02-14T13:49:13;9.45;;;4.70;;
59649;SDS011;46162;57.568;25.814;2024-02-14T13:51:45;10.88;;;5.70;;
59649;SDS011;46162;57.568;25.814;2024-02-14T13:54:15;11.65;;;4.25;;
59649;SDS011;46162;57.568;25.814;2024-02-14T13:56:44;10.32;;;4.30;;
59649;SDS011;46162;57.568;25.814;2024-02-14T14:01:44;11.13;;;4.00;;
59649;SDS011;46162;57.568;25.814;2024-02-14T14:04:14;11.65;;;4.50;;
59649;SDS011;46162;57.568;25.814;2024-02-14T14:06:43;10.40;;;4.50;;
59649;SDS011;46162;57.568;25.814;2024-02-14T14:11:44;8.95;;;4.25;;
59649;SDS011;46162;57.568;25.814;2024-02-14T14:14:16;12.57;;;5.20;;
59649;SDS011;46162;57.568;25.814;2024-02-14T14:16:46;12.23;;;4.57;;
59649;SDS011;46162;57.568;25.814;2024-02-14T14:19:15;12.35;;;4.80;;
59649;SDS011;46162;57.568;25.814;2024-02-14T14:21:44;13.25;;;5.35;;
59649;SDS011;46162;57.568;25.814;2024-02-14T14:24:12;9.45;;;4.40;;
59649;SDS011;46162;57.568;25.814;2024-02-14T14:26:43;10.15;;;5.57;;
59649;SDS011;46162;57.568;25.814;2024-02-14T14:29:12;10.68;;;5.53;;
59649;SDS011;46162;57.568;25.814;2024-02-14T14:31:41;12.55;;;4.80;;
59649;SDS011;46162;57.568;25.814;2024-02-14T14:34:09;16.48;;;5.97;;
59649;SDS011;46162;57.568;25.814;2024-02-14T14:36:38;11.48;;;5.10;;
59649;SDS011;46162;57.568;25.814;2024-02-14T14:39:08;15.98;;;5.65;;
59649;SDS011;46162;57.568;25.814;2024-02-14T14:41:38;13.00;;;4.95;;
59649;SDS011;46162;57.568;25.814;2024-02-14T14:44:10;11.90;;;5.88;;
59649;SDS011;46162;57.568;25.814;2024-02-14T14:46:39;12.43;;;6.05;;
59649;SDS011;46162;57.568;25.814;2024-02-14T14:49:08;14.90;;;5.60;;
59649;SDS011;46162;57.568;25.814;2024-02-14T14:51:38;13.00;;;5.45;;
59649;SDS011;46162;57.568;25.814;2024-02-14T14:54:06;15.45;;;5.57;;
59649;SDS011;46162;57.568;25.814;2024-02-14T14:56:35;13.02;;;5.55;;
59649;SDS011;46162;57.568;25.814;2024-02-14T14:59:04;15.85;;;6.65;;
59649;SDS011;46162;57.568;25.814;2024-02-14T15:01:34;23.23;;;9.60;;
59649;SDS011;46162;57.568;25.814;2024-02-14T15:04:03;26.90;;;12.00;;